Sprague River, Oregon
Current Conditions -  °F | °C
As of 11:53 PM on Wednesday 17 Dec 2014 (Local Time) from KLMT Reporting Station
Overcast Overcast  
Wind Chill: 35°   Ceiling: 3400
Heat Index: 35°   Visibility: 10mi
Dew Point: 33°   Wind: 0mph
Humidity: 92%   Direction: NA
Pressure: 29.99"   Gusts: NA
Location:  42.46°N, 121.51°W
Report Text: KLMT 180753Z AUTO 00000KT 10SM FEW009 BKN034 OVC048 02/01 A2999 RMK AO2 RAE39UPB39E41 SLP159 P0001 T00170006 400560000
Loading
Personal Weather Stations






























Interactive Weather Map New forecast layout! Learn more

10-Day Weather Forecast

Advertisements
Track Severe Weather on mobile